createdAt,value
2022-11-07T00:01:24.628Z,5.87
2022-11-07T00:06:16.364Z,7.53
2022-11-07T00:11:08.190Z,6.80
2022-11-07T00:16:02.030Z,6.53
2022-11-07T00:20:53.973Z,7.20
2022-11-07T00:25:45.674Z,7.27
2022-11-07T00:30:37.411Z,8.20
2022-11-07T00:35:29.190Z,6.87
2022-11-07T00:40:21.061Z,7.60
2022-11-07T00:45:13.299Z,10.43
2022-11-07T00:50:06.395Z,8.13
2022-11-07T00:54:58.114Z,8.47
2022-11-07T00:59:49.771Z,7.57
2022-11-07T01:05:00.050Z,9.03
2022-11-07T01:09:51.707Z,10.93
2022-11-07T01:14:43.377Z,8.57
2022-11-07T01:19:35.102Z,6.73
2022-11-07T01:24:26.834Z,5.57
2022-11-07T01:29:19.676Z,7.77
2022-11-07T01:34:11.379Z,6.10
2022-11-07T01:39:04.693Z,6.60
2022-11-07T01:44:08.454Z,5.70
2022-11-07T01:49:22.901Z,4.30
2022-11-07T01:54:19.007Z,5.47
2022-11-07T01:59:18.274Z,4.63
2022-11-07T02:04:12.098Z,4.37
2022-11-07T02:09:04.538Z,5.10
2022-11-07T02:13:56.195Z,5.27
2022-11-07T02:18:48.137Z,4.40
2022-11-07T02:24:00.599Z,5.47
2022-11-07T02:28:55.184Z,4.77
2022-11-07T02:33:46.862Z,5.57
2022-11-07T02:38:38.647Z,3.67
2022-11-07T02:43:32.499Z,3.80
2022-11-07T02:48:39.405Z,3.83
2022-11-07T02:53:31.081Z,3.33
2022-11-07T02:58:22.746Z,2.77
2022-11-07T03:03:15.115Z,2.90
2022-11-07T03:08:07.051Z,2.80
2022-11-07T03:12:58.699Z,4.43
2022-11-07T03:17:50.360Z,3.73
2022-11-07T03:22:42.041Z,3.50
2022-11-07T03:27:33.901Z,2.53
2022-11-07T03:32:25.586Z,2.63
2022-11-07T03:37:17.593Z,2.50
2022-11-07T03:42:09.263Z,3.27
2022-11-07T03:47:00.927Z,2.37
2022-11-07T03:51:52.582Z,3.50
2022-11-07T03:56:44.275Z,2.90
2022-11-07T04:01:36.036Z,4.07
2022-11-07T04:06:27.779Z,2.40
2022-11-07T04:11:37.846Z,2.70
2022-11-07T04:16:48.242Z,2.73
2022-11-07T04:21:39.891Z,2.57
2022-11-07T04:26:50.002Z,2.03
2022-11-07T04:31:41.665Z,2.67
2022-11-07T04:36:33.448Z,2.63
2022-11-07T04:41:25.197Z,4.67
2022-11-07T04:46:17.145Z,2.43
2022-11-07T04:51:20.240Z,2.80
2022-11-07T04:56:11.928Z,2.73
2022-11-07T08:18:17.636Z,5.53
